Terminal Aerodrome Forecast
Issued by NWS

Home | Current Version | Previous Version | Text Only | Print | Product List | Glossary Off
Versions: 1 2 3 4 5 6 7 8 9 10 11 12 13 14 15 16 17 18 19 20

000
FTUS43 KICT 010531
TAFHUT
TAF
KHUT 010531Z 0106/0206 VRB03KT 6SM BR OVC012
      TEMPO 0109/0113 3SM -SN OVC008
     FM011500 36005KT P6SM SCT020 BKN150
     FM012300 04005KT P6SM SCT150=

USA.gov is the U.S. government's official web portal to all federal, state and local government web resources and services.